sensor_id;sensor_type;location;lat;lon;timestamp;P1;durP1;ratioP1;P2;durP2;ratioP2
12228;SDS011;6177;52.402;9.800;2023-12-07T00:01:04;20.57;;;18.67;;
12228;SDS011;6177;52.402;9.800;2023-12-07T00:03:29;20.23;;;18.30;;
12228;SDS011;6177;52.402;9.800;2023-12-07T00:05:55;21.03;;;19.10;;
12228;SDS011;6177;52.402;9.800;2023-12-07T00:08:21;20.20;;;18.30;;
12228;SDS011;6177;52.402;9.800;2023-12-07T00:10:46;21.17;;;19.10;;
12228;SDS011;6177;52.402;9.800;2023-12-07T00:13:11;20.63;;;18.63;;
12228;SDS011;6177;52.402;9.800;2023-12-07T00:15:37;20.53;;;18.43;;
12228;SDS011;6177;52.402;9.800;2023-12-07T00:18:02;20.30;;;18.50;;
12228;SDS011;6177;52.402;9.800;2023-12-07T00:20:28;20.80;;;18.83;;
12228;SDS011;6177;52.402;9.800;2023-12-07T00:22:54;19.80;;;18.10;;
12228;SDS011;6177;52.402;9.800;2023-12-07T00:25:20;20.37;;;18.40;;
12228;SDS011;6177;52.402;9.800;2023-12-07T00:27:47;18.73;;;16.97;;
12228;SDS011;6177;52.402;9.800;2023-12-07T00:30:13;20.37;;;18.30;;
12228;SDS011;6177;52.402;9.800;2023-12-07T00:32:38;19.73;;;18.03;;
12228;SDS011;6177;52.402;9.800;2023-12-07T00:35:05;18.67;;;16.97;;
12228;SDS011;6177;52.402;9.800;2023-12-07T00:37:32;21.00;;;19.07;;
12228;SDS011;6177;52.402;9.800;2023-12-07T00:39:58;18.37;;;16.67;;
12228;SDS011;6177;52.402;9.800;2023-12-07T00:42:24;20.07;;;18.27;;
12228;SDS011;6177;52.402;9.800;2023-12-07T00:44:49;19.13;;;17.33;;
12228;SDS011;6177;52.402;9.800;2023-12-07T00:47:15;19.00;;;17.30;;
12228;SDS011;6177;52.402;9.800;2023-12-07T00:49:40;19.23;;;17.63;;
12228;SDS011;6177;52.402;9.800;2023-12-07T00:52:06;16.23;;;14.63;;
12228;SDS011;6177;52.402;9.800;2023-12-07T00:54:32;18.03;;;16.47;;
12228;SDS011;6177;52.402;9.800;2023-12-07T00:56:58;17.63;;;15.93;;
12228;SDS011;6177;52.402;9.800;2023-12-07T00:59:23;19.27;;;17.60;;
12228;SDS011;6177;52.402;9.800;2023-12-07T01:01:50;19.13;;;17.13;;
12228;SDS011;6177;52.402;9.800;2023-12-07T01:04:15;19.27;;;17.37;;
12228;SDS011;6177;52.402;9.800;2023-12-07T01:06:41;19.83;;;18.10;;
12228;SDS011;6177;52.402;9.800;2023-12-07T01:09:08;17.43;;;15.87;;
12228;SDS011;6177;52.402;9.800;2023-12-07T01:11:38;16.60;;;14.90;;
12228;SDS011;6177;52.402;9.800;2023-12-07T01:14:05;19.87;;;17.90;;
12228;SDS011;6177;52.402;9.800;2023-12-07T01:16:30;20.17;;;18.27;;
12228;SDS011;6177;52.402;9.800;2023-12-07T01:18:56;19.53;;;17.83;;
12228;SDS011;6177;52.402;9.800;2023-12-07T01:21:23;19.50;;;17.90;;
12228;SDS011;6177;52.402;9.800;2023-12-07T01:23:48;19.10;;;17.37;;
12228;SDS011;6177;52.402;9.800;2023-12-07T01:26:14;20.90;;;19.10;;
12228;SDS011;6177;52.402;9.800;2023-12-07T01:28:39;20.13;;;18.33;;
12228;SDS011;6177;52.402;9.800;2023-12-07T01:31:05;19.80;;;18.10;;
12228;SDS011;6177;52.402;9.800;2023-12-07T01:33:30;20.57;;;18.67;;
12228;SDS011;6177;52.402;9.800;2023-12-07T01:35:56;20.57;;;18.67;;
12228;SDS011;6177;52.402;9.800;2023-12-07T01:38:22;17.67;;;15.87;;
12228;SDS011;6177;52.402;9.800;2023-12-07T01:40:47;20.20;;;18.20;;
12228;SDS011;6177;52.402;9.800;2023-12-07T01:43:13;21.63;;;19.50;;
12228;SDS011;6177;52.402;9.800;2023-12-07T01:45:38;21.27;;;18.57;;
12228;SDS011;6177;52.402;9.800;2023-12-07T01:48:04;20.87;;;18.97;;
12228;SDS011;6177;52.402;9.800;2023-12-07T01:50:29;20.33;;;18.00;;
12228;SDS011;6177;52.402;9.800;2023-12-07T01:52:57;18.67;;;16.87;;
12228;SDS011;6177;52.402;9.800;2023-12-07T01:55:26;20.00;;;18.17;;
12228;SDS011;6177;52.402;9.800;2023-12-07T01:57:52;20.67;;;18.70;;
12228;SDS011;6177;52.402;9.800;2023-12-07T02:00:18;19.73;;;17.90;;
12228;SDS011;6177;52.402;9.800;2023-12-07T02:02:44;18.70;;;17.07;;
12228;SDS011;6177;52.402;9.800;2023-12-07T02:05:12;20.17;;;18.47;;
12228;SDS011;6177;52.402;9.800;2023-12-07T02:07:38;20.93;;;19.13;;
12228;SDS011;6177;52.402;9.800;2023-12-07T02:10:06;20.73;;;18.83;;
12228;SDS011;6177;52.402;9.800;2023-12-07T02:12:32;18.97;;;17.10;;
12228;SDS011;6177;52.402;9.800;2023-12-07T02:14:57;18.80;;;17.10;;
12228;SDS011;6177;52.402;9.800;2023-12-07T02:17:28;22.50;;;20.10;;
12228;SDS011;6177;52.402;9.800;2023-12-07T02:20:06;20.63;;;18.63;;
12228;SDS011;6177;52.402;9.800;2023-12-07T02:22:48;19.67;;;17.87;;
12228;SDS011;6177;52.402;9.800;2023-12-07T02:25:18;20.50;;;18.67;;
12228;SDS011;6177;52.402;9.800;2023-12-07T02:27:44;19.63;;;17.63;;
12228;SDS011;6177;52.402;9.800;2023-12-07T02:30:13;18.33;;;16.83;;
12228;SDS011;6177;52.402;9.800;2023-12-07T02:32:40;20.20;;;18.33;;
12228;SDS011;6177;52.402;9.800;2023-12-07T02:35:07;19.00;;;17.47;;
12228;SDS011;6177;52.402;9.800;2023-12-07T02:37:46;20.50;;;18.70;;
12228;SDS011;6177;52.402;9.800;2023-12-07T02:40:16;20.37;;;18.47;;
12228;SDS011;6177;52.402;9.800;2023-12-07T02:42:43;19.43;;;17.63;;
12228;SDS011;6177;52.402;9.800;2023-12-07T02:45:09;18.90;;;17.10;;
12228;SDS011;6177;52.402;9.800;2023-12-07T02:47:35;18.33;;;16.73;;
12228;SDS011;6177;52.402;9.800;2023-12-07T02:50:02;19.80;;;18.20;;
12228;SDS011;6177;52.402;9.800;2023-12-07T02:52:28;19.37;;;17.57;;
12228;SDS011;6177;52.402;9.800;2023-12-07T02:54:54;19.10;;;17.40;;
12228;SDS011;6177;52.402;9.800;2023-12-07T02:57:19;19.20;;;17.50;;
12228;SDS011;6177;52.402;9.800;2023-12-07T02:59:45;19.47;;;17.60;;
12228;SDS011;6177;52.402;9.800;2023-12-07T03:02:10;18.60;;;16.80;;
12228;SDS011;6177;52.402;9.800;2023-12-07T03:04:36;19.17;;;17.37;;
12228;SDS011;6177;52.402;9.800;2023-12-07T03:07:01;18.97;;;17.17;;
12228;SDS011;6177;52.402;9.800;2023-12-07T03:09:27;19.03;;;17.33;;
12228;SDS011;6177;52.402;9.800;2023-12-07T03:11:53;18.13;;;16.33;;
12228;SDS011;6177;52.402;9.800;2023-12-07T03:14:18;19.33;;;17.63;;
12228;SDS011;6177;52.402;9.800;2023-12-07T03:16:44;18.63;;;16.93;;
12228;SDS011;6177;52.402;9.800;2023-12-07T03:19:10;20.90;;;18.90;;
12228;SDS011;6177;52.402;9.800;2023-12-07T03:21:39;18.17;;;16.53;;
12228;SDS011;6177;52.402;9.800;2023-12-07T03:24:06;20.07;;;18.07;;
12228;SDS011;6177;52.402;9.800;2023-12-07T03:26:33;18.67;;;16.87;;
12228;SDS011;6177;52.402;9.800;2023-12-07T03:28:58;19.13;;;17.43;;
12228;SDS011;6177;52.402;9.800;2023-12-07T03:31:24;20.63;;;18.47;;
12228;SDS011;6177;52.402;9.800;2023-12-07T03:33:50;18.47;;;16.87;;
12228;SDS011;6177;52.402;9.800;2023-12-07T03:36:15;18.53;;;16.93;;
12228;SDS011;6177;52.402;9.800;2023-12-07T03:38:42;17.90;;;16.20;;
12228;SDS011;6177;52.402;9.800;2023-12-07T03:41:07;19.43;;;17.47;;
12228;SDS011;6177;52.402;9.800;2023-12-07T03:43:33;19.13;;;17.40;;
12228;SDS011;6177;52.402;9.800;2023-12-07T03:45:58;17.50;;;15.73;;
12228;SDS011;6177;52.402;9.800;2023-12-07T03:48:24;19.07;;;17.37;;
12228;SDS011;6177;52.402;9.800;2023-12-07T03:50:50;18.77;;;17.07;;
12228;SDS011;6177;52.402;9.800;2023-12-07T03:53:15;18.53;;;16.87;;
12228;SDS011;6177;52.402;9.800;2023-12-07T03:55:41;18.90;;;17.33;;
12228;SDS011;6177;52.402;9.800;2023-12-07T03:58:06;18.07;;;16.40;;
12228;SDS011;6177;52.402;9.800;2023-12-07T04:00:32;17.87;;;16.43;;
12228;SDS011;6177;52.402;9.800;2023-12-07T04:02:58;19.20;;;17.50;;
12228;SDS011;6177;52.402;9.800;2023-12-07T04:05:23;18.40;;;16.80;;
12228;SDS011;6177;52.402;9.800;2023-12-07T04:07:49;16.53;;;14.93;;
12228;SDS011;6177;52.402;9.800;2023-12-07T04:10:15;16.57;;;14.93;;
12228;SDS011;6177;52.402;9.800;2023-12-07T04:12:40;17.33;;;15.83;;
12228;SDS011;6177;52.402;9.800;2023-12-07T04:15:06;16.90;;;15.40;;
12228;SDS011;6177;52.402;9.800;2023-12-07T04:17:32;18.17;;;16.57;;
12228;SDS011;6177;52.402;9.800;2023-12-07T04:19:58;17.20;;;15.70;;
12228;SDS011;6177;52.402;9.800;2023-12-07T04:22:23;17.73;;;16.13;;
12228;SDS011;6177;52.402;9.800;2023-12-07T04:24:49;17.63;;;16.13;;
12228;SDS011;6177;52.402;9.800;2023-12-07T04:27:14;16.93;;;15.53;;
12228;SDS011;6177;52.402;9.800;2023-12-07T04:29:40;17.63;;;15.97;;
12228;SDS011;6177;52.402;9.800;2023-12-07T04:32:06;17.47;;;15.97;;
12228;SDS011;6177;52.402;9.800;2023-12-07T04:34:32;17.40;;;15.90;;
12228;SDS011;6177;52.402;9.800;2023-12-07T04:36:58;17.33;;;15.83;;
12228;SDS011;6177;52.402;9.800;2023-12-07T04:39:24;17.90;;;16.40;;
12228;SDS011;6177;52.402;9.800;2023-12-07T04:41:49;18.30;;;16.73;;
12228;SDS011;6177;52.402;9.800;2023-12-07T04:44:15;17.43;;;15.83;;
12228;SDS011;6177;52.402;9.800;2023-12-07T04:46:40;18.10;;;16.50;;
12228;SDS011;6177;52.402;9.800;2023-12-07T04:49:07;16.97;;;15.57;;
12228;SDS011;6177;52.402;9.800;2023-12-07T04:51:33;16.40;;;14.90;;
12228;SDS011;6177;52.402;9.800;2023-12-07T04:53:58;15.63;;;14.23;;
12228;SDS011;6177;52.402;9.800;2023-12-07T04:56:24;17.07;;;15.47;;
12228;SDS011;6177;52.402;9.800;2023-12-07T04:58:50;16.53;;;15.03;;
12228;SDS011;6177;52.402;9.800;2023-12-07T05:01:15;16.63;;;15.00;;
12228;SDS011;6177;52.402;9.800;2023-12-07T05:03:41;16.30;;;14.90;;
12228;SDS011;6177;52.402;9.800;2023-12-07T05:06:06;17.83;;;16.17;;
12228;SDS011;6177;52.402;9.800;2023-12-07T05:08:32;15.50;;;14.00;;
12228;SDS011;6177;52.402;9.800;2023-12-07T05:10:58;16.10;;;14.70;;
12228;SDS011;6177;52.402;9.800;2023-12-07T05:13:23;16.27;;;14.87;;
12228;SDS011;6177;52.402;9.800;2023-12-07T05:15:49;17.43;;;16.03;;
12228;SDS011;6177;52.402;9.800;2023-12-07T05:18:15;17.40;;;15.60;;
12228;SDS011;6177;52.402;9.800;2023-12-07T05:20:40;16.30;;;14.90;;
12228;SDS011;6177;52.402;9.800;2023-12-07T05:23:06;16.13;;;14.73;;
12228;SDS011;6177;52.402;9.800;2023-12-07T05:25:31;16.87;;;15.33;;
12228;SDS011;6177;52.402;9.800;2023-12-07T05:27:57;17.20;;;15.60;;
12228;SDS011;6177;52.402;9.800;2023-12-07T05:30:23;18.27;;;16.67;;
12228;SDS011;6177;52.402;9.800;2023-12-07T05:32:48;17.70;;;16.10;;
12228;SDS011;6177;52.402;9.800;2023-12-07T05:35:14;18.63;;;17.03;;
12228;SDS011;6177;52.402;9.800;2023-12-07T05:37:40;15.53;;;14.03;;
12228;SDS011;6177;52.402;9.800;2023-12-07T05:40:05;17.07;;;15.57;;
12228;SDS011;6177;52.402;9.800;2023-12-07T05:42:31;18.03;;;16.33;;
12228;SDS011;6177;52.402;9.800;2023-12-07T05:44:57;16.70;;;15.17;;
12228;SDS011;6177;52.402;9.800;2023-12-07T05:47:23;15.27;;;13.87;;
12228;SDS011;6177;52.402;9.800;2023-12-07T05:49:48;17.00;;;15.60;;
12228;SDS011;6177;52.402;9.800;2023-12-07T05:52:14;17.83;;;16.23;;
12228;SDS011;6177;52.402;9.800;2023-12-07T05:54:40;17.90;;;15.97;;
12228;SDS011;6177;52.402;9.800;2023-12-07T05:57:08;16.90;;;15.37;;
12228;SDS011;6177;52.402;9.800;2023-12-07T05:59:37;15.53;;;14.07;;
12228;SDS011;6177;52.402;9.800;2023-12-07T06:02:03;19.03;;;17.13;;
12228;SDS011;6177;52.402;9.800;2023-12-07T06:04:29;17.20;;;15.60;;
12228;SDS011;6177;52.402;9.800;2023-12-07T06:06:55;15.67;;;14.27;;
12228;SDS011;6177;52.402;9.800;2023-12-07T06:09:21;16.53;;;15.13;;
12228;SDS011;6177;52.402;9.800;2023-12-07T06:11:47;16.10;;;14.57;;
12228;SDS011;6177;52.402;9.800;2023-12-07T06:14:13;16.97;;;15.43;;
12228;SDS011;6177;52.402;9.800;2023-12-07T06:16:38;15.67;;;14.30;;
12228;SDS011;6177;52.402;9.800;2023-12-07T06:19:04;16.30;;;14.90;;
12228;SDS011;6177;52.402;9.800;2023-12-07T06:21:29;17.23;;;15.67;;
12228;SDS011;6177;52.402;9.800;2023-12-07T06:23:55;17.03;;;15.33;;
12228;SDS011;6177;52.402;9.800;2023-12-07T06:26:21;16.53;;;15.03;;
12228;SDS011;6177;52.402;9.800;2023-12-07T06:28:47;16.83;;;15.23;;
12228;SDS011;6177;52.402;9.800;2023-12-07T06:31:13;16.63;;;15.20;;
12228;SDS011;6177;52.402;9.800;2023-12-07T06:33:40;16.27;;;14.87;;
12228;SDS011;6177;52.402;9.800;2023-12-07T06:36:06;14.90;;;13.60;;
12228;SDS011;6177;52.402;9.800;2023-12-07T06:38:32;15.83;;;14.43;;
12228;SDS011;6177;52.402;9.800;2023-12-07T06:40:57;15.67;;;14.17;;
12228;SDS011;6177;52.402;9.800;2023-12-07T06:43:23;14.93;;;13.60;;
12228;SDS011;6177;52.402;9.800;2023-12-07T06:45:49;17.27;;;15.57;;
12228;SDS011;6177;52.402;9.800;2023-12-07T06:48:14;16.50;;;14.77;;
12228;SDS011;6177;52.402;9.800;2023-12-07T06:50:39;15.70;;;14.20;;
12228;SDS011;6177;52.402;9.800;2023-12-07T06:53:05;15.50;;;14.10;;
12228;SDS011;6177;52.402;9.800;2023-12-07T06:55:30;15.97;;;14.53;;
12228;SDS011;6177;52.402;9.800;2023-12-07T06:57:57;16.30;;;14.70;;
12228;SDS011;6177;52.402;9.800;2023-12-07T07:00:23;16.27;;;14.80;;
12228;SDS011;6177;52.402;9.800;2023-12-07T07:02:50;15.87;;;14.27;;
12228;SDS011;6177;52.402;9.800;2023-12-07T07:05:15;16.83;;;15.27;;
12228;SDS011;6177;52.402;9.800;2023-12-07T07:07:41;15.83;;;14.43;;
12228;SDS011;6177;52.402;9.800;2023-12-07T07:10:06;15.73;;;14.10;;
12228;SDS011;6177;52.402;9.800;2023-12-07T07:12:35;15.30;;;13.90;;
12228;SDS011;6177;52.402;9.800;2023-12-07T07:15:00;16.40;;;14.87;;
12228;SDS011;6177;52.402;9.800;2023-12-07T07:17:26;16.10;;;14.67;;
12228;SDS011;6177;52.402;9.800;2023-12-07T07:19:54;16.13;;;14.53;;
12228;SDS011;6177;52.402;9.800;2023-12-07T07:22:21;15.20;;;13.80;;
12228;SDS011;6177;52.402;9.800;2023-12-07T07:24:47;14.03;;;12.83;;
12228;SDS011;6177;52.402;9.800;2023-12-07T07:27:13;15.17;;;13.70;;
12228;SDS011;6177;52.402;9.800;2023-12-07T07:29:38;14.27;;;12.70;;
12228;SDS011;6177;52.402;9.800;2023-12-07T07:32:04;14.53;;;13.23;;
12228;SDS011;6177;52.402;9.800;2023-12-07T07:34:30;15.27;;;13.40;;
12228;SDS011;6177;52.402;9.800;2023-12-07T07:36:56;14.83;;;13.43;;
12228;SDS011;6177;52.402;9.800;2023-12-07T07:39:21;14.37;;;12.97;;
12228;SDS011;6177;52.402;9.800;2023-12-07T07:41:47;14.83;;;13.53;;
12228;SDS011;6177;52.402;9.800;2023-12-07T07:44:12;14.37;;;13.23;;
12228;SDS011;6177;52.402;9.800;2023-12-07T07:46:40;15.13;;;13.63;;
12228;SDS011;6177;52.402;9.800;2023-12-07T07:49:06;14.07;;;12.87;;
12228;SDS011;6177;52.402;9.800;2023-12-07T07:51:31;15.97;;;13.80;;
12228;SDS011;6177;52.402;9.800;2023-12-07T07:53:58;15.47;;;14.00;;
12228;SDS011;6177;52.402;9.800;2023-12-07T07:56:24;14.97;;;13.40;;
12228;SDS011;6177;52.402;9.800;2023-12-07T07:58:49;15.10;;;13.63;;
12228;SDS011;6177;52.402;9.800;2023-12-07T08:01:15;16.27;;;14.57;;
12228;SDS011;6177;52.402;9.800;2023-12-07T08:03:41;15.30;;;13.77;;
12228;SDS011;6177;52.402;9.800;2023-12-07T08:06:06;14.10;;;12.83;;
12228;SDS011;6177;52.402;9.800;2023-12-07T08:08:32;14.43;;;13.13;;
12228;SDS011;6177;52.402;9.800;2023-12-07T08:10:57;14.00;;;12.63;;
12228;SDS011;6177;52.402;9.800;2023-12-07T08:13:23;13.57;;;12.17;;
12228;SDS011;6177;52.402;9.800;2023-12-07T08:15:48;13.27;;;12.17;;
12228;SDS011;6177;52.402;9.800;2023-12-07T08:18:14;14.63;;;13.13;;
12228;SDS011;6177;52.402;9.800;2023-12-07T08:20:40;14.20;;;12.83;;
12228;SDS011;6177;52.402;9.800;2023-12-07T08:23:05;13.60;;;12.33;;
12228;SDS011;6177;52.402;9.800;2023-12-07T08:25:31;14.20;;;12.80;;
12228;SDS011;6177;52.402;9.800;2023-12-07T08:27:57;12.77;;;11.60;;
12228;SDS011;6177;52.402;9.800;2023-12-07T08:30:22;13.23;;;12.13;;
12228;SDS011;6177;52.402;9.800;2023-12-07T08:32:48;12.57;;;11.47;;
12228;SDS011;6177;52.402;9.800;2023-12-07T08:35:13;13.47;;;12.23;;
12228;SDS011;6177;52.402;9.800;2023-12-07T08:37:39;15.07;;;12.77;;
12228;SDS011;6177;52.402;9.800;2023-12-07T08:40:05;14.67;;;13.27;;
12228;SDS011;6177;52.402;9.800;2023-12-07T08:42:31;13.83;;;12.73;;
12228;SDS011;6177;52.402;9.800;2023-12-07T08:44:57;13.90;;;12.50;;
12228;SDS011;6177;52.402;9.800;2023-12-07T08:47:23;14.13;;;12.87;;
12228;SDS011;6177;52.402;9.800;2023-12-07T08:49:48;14.87;;;13.57;;
12228;SDS011;6177;52.402;9.800;2023-12-07T08:52:16;15.20;;;13.80;;
12228;SDS011;6177;52.402;9.800;2023-12-07T08:54:43;15.77;;;14.27;;
12228;SDS011;6177;52.402;9.800;2023-12-07T08:57:08;14.87;;;13.63;;
12228;SDS011;6177;52.402;9.800;2023-12-07T08:59:34;15.53;;;14.13;;
12228;SDS011;6177;52.402;9.800;2023-12-07T09:01:59;14.90;;;13.50;;
12228;SDS011;6177;52.402;9.800;2023-12-07T09:04:25;16.93;;;14.93;;
12228;SDS011;6177;52.402;9.800;2023-12-07T09:06:50;16.17;;;14.67;;
12228;SDS011;6177;52.402;9.800;2023-12-07T09:09:16;14.80;;;13.47;;
12228;SDS011;6177;52.402;9.800;2023-12-07T09:11:41;15.73;;;14.13;;
12228;SDS011;6177;52.402;9.800;2023-12-07T09:14:07;14.70;;;13.40;;
12228;SDS011;6177;52.402;9.800;2023-12-07T09:16:33;14.63;;;13.50;;
12228;SDS011;6177;52.402;9.800;2023-12-07T09:18:58;14.67;;;13.47;;
12228;SDS011;6177;52.402;9.800;2023-12-07T09:21:24;13.90;;;12.73;;
12228;SDS011;6177;52.402;9.800;2023-12-07T09:23:50;14.33;;;13.00;;
12228;SDS011;6177;52.402;9.800;2023-12-07T09:26:15;15.20;;;13.97;;
12228;SDS011;6177;52.402;9.800;2023-12-07T09:28:41;15.23;;;13.83;;
12228;SDS011;6177;52.402;9.800;2023-12-07T09:31:06;15.37;;;13.90;;
12228;SDS011;6177;52.402;9.800;2023-12-07T09:33:32;16.10;;;14.60;;
12228;SDS011;6177;52.402;9.800;2023-12-07T09:35:57;15.67;;;14.27;;
12228;SDS011;6177;52.402;9.800;2023-12-07T09:38:23;14.07;;;12.87;;
12228;SDS011;6177;52.402;9.800;2023-12-07T09:40:52;15.70;;;14.43;;
12228;SDS011;6177;52.402;9.800;2023-12-07T09:43:18;14.63;;;13.23;;
12228;SDS011;6177;52.402;9.800;2023-12-07T09:45:44;16.10;;;14.70;;
12228;SDS011;6177;52.402;9.800;2023-12-07T09:48:09;15.80;;;14.50;;
12228;SDS011;6177;52.402;9.800;2023-12-07T09:50:35;15.13;;;13.87;;
12228;SDS011;6177;52.402;9.800;2023-12-07T09:53:01;15.53;;;14.07;;
12228;SDS011;6177;52.402;9.800;2023-12-07T09:55:27;15.93;;;14.43;;
12228;SDS011;6177;52.402;9.800;2023-12-07T09:57:53;17.33;;;14.67;;
12228;SDS011;6177;52.402;9.800;2023-12-07T10:00:22;15.37;;;13.77;;
12228;SDS011;6177;52.402;9.800;2023-12-07T10:02:47;15.93;;;14.43;;
12228;SDS011;6177;52.402;9.800;2023-12-07T10:05:13;15.90;;;14.60;;
12228;SDS011;6177;52.402;9.800;2023-12-07T10:07:42;16.43;;;14.97;;
12228;SDS011;6177;52.402;9.800;2023-12-07T10:10:08;17.40;;;15.90;;
12228;SDS011;6177;52.402;9.800;2023-12-07T10:12:40;16.03;;;14.53;;
12228;SDS011;6177;52.402;9.800;2023-12-07T10:15:13;16.67;;;15.23;;
12228;SDS011;6177;52.402;9.800;2023-12-07T10:17:44;17.40;;;15.90;;
12228;SDS011;6177;52.402;9.800;2023-12-07T10:20:13;17.27;;;15.57;;
12228;SDS011;6177;52.402;9.800;2023-12-07T10:22:42;17.40;;;15.77;;
12228;SDS011;6177;52.402;9.800;2023-12-07T10:25:09;17.43;;;15.87;;
12228;SDS011;6177;52.402;9.800;2023-12-07T10:27:35;18.20;;;16.53;;
12228;SDS011;6177;52.402;9.800;2023-12-07T10:30:04;17.13;;;15.73;;
12228;SDS011;6177;52.402;9.800;2023-12-07T10:32:32;17.33;;;15.93;;
12228;SDS011;6177;52.402;9.800;2023-12-07T10:35:02;17.63;;;16.10;;
12228;SDS011;6177;52.402;9.800;2023-12-07T10:37:27;16.03;;;14.53;;
12228;SDS011;6177;52.402;9.800;2023-12-07T10:39:53;17.63;;;16.03;;
12228;SDS011;6177;52.402;9.800;2023-12-07T10:42:18;17.17;;;15.77;;
12228;SDS011;6177;52.402;9.800;2023-12-07T10:44:49;17.87;;;16.20;;
12228;SDS011;6177;52.402;9.800;2023-12-07T10:47:15;17.83;;;16.27;;
12228;SDS011;6177;52.402;9.800;2023-12-07T10:49:43;16.87;;;15.30;;
12228;SDS011;6177;52.402;9.800;2023-12-07T10:52:11;18.33;;;16.63;;
12228;SDS011;6177;52.402;9.800;2023-12-07T10:54:43;18.13;;;16.40;;
12228;SDS011;6177;52.402;9.800;2023-12-07T10:57:12;17.90;;;16.20;;
12228;SDS011;6177;52.402;9.800;2023-12-07T10:59:39;17.67;;;15.83;;
12228;SDS011;6177;52.402;9.800;2023-12-07T11:02:07;17.47;;;15.87;;
12228;SDS011;6177;52.402;9.800;2023-12-07T11:04:35;16.93;;;15.47;;
12228;SDS011;6177;52.402;9.800;2023-12-07T11:07:04;17.77;;;16.27;;
12228;SDS011;6177;52.402;9.800;2023-12-07T11:09:35;17.47;;;15.97;;
12228;SDS011;6177;52.402;9.800;2023-12-07T11:12:09;17.50;;;16.00;;
12228;SDS011;6177;52.402;9.800;2023-12-07T11:14:39;17.20;;;15.67;;
12228;SDS011;6177;52.402;9.800;2023-12-07T11:17:04;15.70;;;14.40;;
12228;SDS011;6177;52.402;9.800;2023-12-07T11:22:05;15.17;;;13.83;;
12228;SDS011;6177;52.402;9.800;2023-12-07T11:24:31;15.70;;;14.30;;
12228;SDS011;6177;52.402;9.800;2023-12-07T11:26:57;14.97;;;13.60;;
12228;SDS011;6177;52.402;9.800;2023-12-07T11:29:30;15.90;;;14.50;;
12228;SDS011;6177;52.402;9.800;2023-12-07T11:31:56;16.10;;;14.70;;
12228;SDS011;6177;52.402;9.800;2023-12-07T11:34:35;16.60;;;15.13;;
12228;SDS011;6177;52.402;9.800;2023-12-07T11:37:01;17.00;;;15.37;;
12228;SDS011;6177;52.402;9.800;2023-12-07T11:39:37;15.63;;;14.23;;
12228;SDS011;6177;52.402;9.800;2023-12-07T11:42:11;16.03;;;14.53;;
12228;SDS011;6177;52.402;9.800;2023-12-07T11:44:38;15.90;;;14.60;;
12228;SDS011;6177;52.402;9.800;2023-12-07T11:47:05;15.37;;;14.07;;
12228;SDS011;6177;52.402;9.800;2023-12-07T11:49:31;14.07;;;12.70;;
12228;SDS011;6177;52.402;9.800;2023-12-07T11:51:57;15.77;;;14.23;;
12228;SDS011;6177;52.402;9.800;2023-12-07T11:54:24;15.03;;;13.73;;
12228;SDS011;6177;52.402;9.800;2023-12-07T11:56:56;15.50;;;14.20;;
12228;SDS011;6177;52.402;9.800;2023-12-07T11:59:22;15.80;;;14.30;;
12228;SDS011;6177;52.402;9.800;2023-12-07T12:01:48;15.43;;;13.87;;
12228;SDS011;6177;52.402;9.800;2023-12-07T12:04:17;15.13;;;13.83;;
12228;SDS011;6177;52.402;9.800;2023-12-07T12:06:46;14.77;;;13.47;;
12228;SDS011;6177;52.402;9.800;2023-12-07T12:09:12;14.63;;;13.40;;
12228;SDS011;6177;52.402;9.800;2023-12-07T12:11:47;15.10;;;13.80;;
12228;SDS011;6177;52.402;9.800;2023-12-07T12:14:16;16.33;;;14.83;;
12228;SDS011;6177;52.402;9.800;2023-12-07T12:16:45;15.87;;;14.47;;
12228;SDS011;6177;52.402;9.800;2023-12-07T12:19:11;15.10;;;13.87;;
12228;SDS011;6177;52.402;9.800;2023-12-07T12:21:39;15.63;;;14.03;;
12228;SDS011;6177;52.402;9.800;2023-12-07T12:24:06;15.53;;;13.93;;
12228;SDS011;6177;52.402;9.800;2023-12-07T12:26:35;16.37;;;14.97;;
12228;SDS011;6177;52.402;9.800;2023-12-07T12:29:03;15.33;;;13.93;;
12228;SDS011;6177;52.402;9.800;2023-12-07T12:31:29;15.63;;;14.23;;
12228;SDS011;6177;52.402;9.800;2023-12-07T12:33:55;16.43;;;14.87;;
12228;SDS011;6177;52.402;9.800;2023-12-07T12:36:21;17.17;;;15.57;;
12228;SDS011;6177;52.402;9.800;2023-12-07T12:38:48;16.33;;;14.83;;
12228;SDS011;6177;52.402;9.800;2023-12-07T12:41:19;15.73;;;14.03;;
12228;SDS011;6177;52.402;9.800;2023-12-07T12:43:45;15.67;;;14.30;;
12228;SDS011;6177;52.402;9.800;2023-12-07T12:46:11;16.93;;;15.37;;
12228;SDS011;6177;52.402;9.800;2023-12-07T12:48:37;15.27;;;13.93;;
12228;SDS011;6177;52.402;9.800;2023-12-07T12:51:10;16.43;;;14.90;;
12228;SDS011;6177;52.402;9.800;2023-12-07T12:53:41;15.37;;;13.87;;
12228;SDS011;6177;52.402;9.800;2023-12-07T12:56:10;16.47;;;14.90;;
12228;SDS011;6177;52.402;9.800;2023-12-07T12:58:36;17.33;;;15.73;;
12228;SDS011;6177;52.402;9.800;2023-12-07T13:01:02;16.63;;;14.93;;
12228;SDS011;6177;52.402;9.800;2023-12-07T13:03:28;16.90;;;15.20;;
12228;SDS011;6177;52.402;9.800;2023-12-07T13:05:54;17.60;;;16.00;;
12228;SDS011;6177;52.402;9.800;2023-12-07T13:08:19;17.50;;;15.80;;
12228;SDS011;6177;52.402;9.800;2023-12-07T13:10:46;17.10;;;15.50;;
12228;SDS011;6177;52.402;9.800;2023-12-07T13:13:12;17.60;;;15.97;;
12228;SDS011;6177;52.402;9.800;2023-12-07T13:15:37;18.07;;;16.20;;
12228;SDS011;6177;52.402;9.800;2023-12-07T13:18:04;17.73;;;16.13;;
12228;SDS011;6177;52.402;9.800;2023-12-07T13:20:30;17.87;;;16.03;;
12228;SDS011;6177;52.402;9.800;2023-12-07T13:22:56;17.93;;;16.23;;
12228;SDS011;6177;52.402;9.800;2023-12-07T13:25:21;16.33;;;14.93;;
12228;SDS011;6177;52.402;9.800;2023-12-07T13:27:47;18.97;;;17.07;;
12228;SDS011;6177;52.402;9.800;2023-12-07T13:30:12;18.33;;;16.63;;
12228;SDS011;6177;52.402;9.800;2023-12-07T13:32:38;18.03;;;16.37;;
12228;SDS011;6177;52.402;9.800;2023-12-07T13:35:07;18.60;;;16.77;;
12228;SDS011;6177;52.402;9.800;2023-12-07T13:37:33;18.87;;;16.97;;
12228;SDS011;6177;52.402;9.800;2023-12-07T13:39:59;18.57;;;16.77;;
12228;SDS011;6177;52.402;9.800;2023-12-07T13:42:25;18.87;;;17.03;;
12228;SDS011;6177;52.402;9.800;2023-12-07T13:44:55;19.50;;;17.70;;
12228;SDS011;6177;52.402;9.800;2023-12-07T13:47:25;20.40;;;18.40;;
12228;SDS011;6177;52.402;9.800;2023-12-07T13:49:57;19.57;;;17.53;;
12228;SDS011;6177;52.402;9.800;2023-12-07T13:52:23;19.03;;;17.17;;
12228;SDS011;6177;52.402;9.800;2023-12-07T13:54:49;19.57;;;17.57;;
12228;SDS011;6177;52.402;9.800;2023-12-07T13:57:14;18.23;;;16.50;;
12228;SDS011;6177;52.402;9.800;2023-12-07T13:59:40;18.73;;;16.93;;
12228;SDS011;6177;52.402;9.800;2023-12-07T14:02:06;17.63;;;16.03;;
12228;SDS011;6177;52.402;9.800;2023-12-07T14:04:31;18.73;;;16.73;;
12228;SDS011;6177;52.402;9.800;2023-12-07T14:07:10;18.50;;;16.63;;
12228;SDS011;6177;52.402;9.800;2023-12-07T14:09:37;17.97;;;16.27;;
12228;SDS011;6177;52.402;9.800;2023-12-07T14:12:03;17.57;;;15.80;;
12228;SDS011;6177;52.402;9.800;2023-12-07T14:14:29;17.97;;;16.27;;
12228;SDS011;6177;52.402;9.800;2023-12-07T14:16:55;18.00;;;16.30;;
12228;SDS011;6177;52.402;9.800;2023-12-07T14:19:21;18.50;;;16.70;;
12228;SDS011;6177;52.402;9.800;2023-12-07T14:21:46;18.33;;;16.40;;
12228;SDS011;6177;52.402;9.800;2023-12-07T14:24:12;18.17;;;16.47;;
12228;SDS011;6177;52.402;9.800;2023-12-07T14:26:38;18.93;;;16.97;;
12228;SDS011;6177;52.402;9.800;2023-12-07T14:29:07;17.90;;;16.13;;
12228;SDS011;6177;52.402;9.800;2023-12-07T14:31:33;18.30;;;16.47;;